sensor_id;sensor_type;location;lat;lon;timestamp;pressure;altitude;pressure_sealevel;temperature;humidity
48800;BME280;34611;47.964;7.982;2023-03-01T00:04:36;97247.00;;;7.89;42.53
48800;BME280;34611;47.964;7.982;2023-03-01T00:11:36;97254.56;;;7.92;42.46
48800;BME280;34611;47.964;7.982;2023-03-01T00:18:37;97246.81;;;7.92;42.49
48800;BME280;34611;47.964;7.982;2023-03-01T00:25:40;97242.53;;;7.91;42.61
48800;BME280;34611;47.964;7.982;2023-03-01T00:32:41;97249.38;;;7.92;42.62
48800;BME280;34611;47.964;7.982;2023-03-01T00:39:41;97235.50;;;7.93;42.46
48800;BME280;34611;47.964;7.982;2023-03-01T00:46:41;97232.91;;;7.93;42.53
48800;BME280;34611;47.964;7.982;2023-03-01T00:53:42;97223.50;;;7.92;42.68
48800;BME280;34611;47.964;7.982;2023-03-01T01:00:42;97224.31;;;7.93;42.52
48800;BME280;34611;47.964;7.982;2023-03-01T01:07:43;97208.88;;;7.91;42.56
48800;BME280;34611;47.964;7.982;2023-03-01T01:14:43;97207.13;;;7.91;42.56
48800;BME280;34611;47.964;7.982;2023-03-01T01:21:43;97205.38;;;7.92;42.57
48800;BME280;34611;47.964;7.982;2023-03-01T01:28:45;97206.19;;;7.93;42.58
48800;BME280;34611;47.964;7.982;2023-03-01T01:35:45;97189.94;;;7.90;42.61
48800;BME280;34611;47.964;7.982;2023-03-01T01:42:46;97180.41;;;7.91;42.65
48800;BME280;34611;47.964;7.982;2023-03-01T01:49:47;97180.41;;;7.91;42.57
48800;BME280;34611;47.964;7.982;2023-03-01T01:56:50;97176.19;;;7.90;42.52
48800;BME280;34611;47.964;7.982;2023-03-01T02:03:52;97162.38;;;7.89;42.68
48800;BME280;34611;47.964;7.982;2023-03-01T02:10:52;97157.34;;;7.88;42.48
48800;BME280;34611;47.964;7.982;2023-03-01T02:17:55;97159.94;;;7.88;42.40
48800;BME280;34611;47.964;7.982;2023-03-01T02:32:18;97153.94;;;7.87;42.49
48800;BME280;34611;47.964;7.982;2023-03-01T02:39:28;97151.44;;;7.86;42.51
48800;BME280;34611;47.964;7.982;2023-03-01T02:46:30;97141.09;;;7.86;42.56
48800;BME280;34611;47.964;7.982;2023-03-01T03:01:00;97121.19;;;7.86;42.63
48800;BME280;34611;47.964;7.982;2023-03-01T03:08:02;97123.78;;;7.86;42.66
48800;BME280;34611;47.964;7.982;2023-03-01T03:15:07;97120.38;;;7.86;42.66
48800;BME280;34611;47.964;7.982;2023-03-01T03:22:09;97116.84;;;7.87;42.81
48800;BME280;34611;47.964;7.982;2023-03-01T03:29:09;97100.41;;;7.88;42.66
48800;BME280;34611;47.964;7.982;2023-03-01T03:36:09;97107.94;;;7.91;42.75
48800;BME280;34611;47.964;7.982;2023-03-01T03:43:21;97103.00;;;7.88;42.70
48800;BME280;34611;47.964;7.982;2023-03-01T03:50:22;97100.28;;;7.89;42.78
48800;BME280;34611;47.964;7.982;2023-03-01T03:57:23;97102.66;;;7.93;42.91
48800;BME280;34611;47.964;7.982;2023-03-01T04:04:23;97090.78;;;7.90;43.37
48800;BME280;34611;47.964;7.982;2023-03-01T04:11:23;97084.50;;;8.05;43.42
48800;BME280;34611;47.964;7.982;2023-03-01T04:18:26;97089.50;;;8.08;43.42
48800;BME280;34611;47.964;7.982;2023-03-01T04:25:26;97071.25;;;8.10;43.41
48800;BME280;34611;47.964;7.982;2023-03-01T04:32:27;97064.19;;;8.12;43.59
48800;BME280;34611;47.964;7.982;2023-03-01T04:39:27;97052.09;;;8.13;43.60
48800;BME280;34611;47.964;7.982;2023-03-01T04:46:27;97064.91;;;8.14;43.73
48800;BME280;34611;47.964;7.982;2023-03-01T04:53:27;97065.63;;;8.16;43.84
48800;BME280;34611;47.964;7.982;2023-03-01T05:00:28;97062.13;;;8.17;43.89
48800;BME280;34611;47.964;7.982;2023-03-01T05:07:28;97059.44;;;8.19;43.79
48800;BME280;34611;47.964;7.982;2023-03-01T05:14:28;97050.00;;;8.18;44.03
48800;BME280;34611;47.964;7.982;2023-03-01T05:21:28;97036.00;;;8.20;43.99
48800;BME280;34611;47.964;7.982;2023-03-01T05:28:29;97045.53;;;8.20;44.01
48800;BME280;34611;47.964;7.982;2023-03-01T05:35:32;97031.81;;;8.30;44.09
48800;BME280;34611;47.964;7.982;2023-03-01T05:42:32;97028.75;;;8.25;44.15
48800;BME280;34611;47.964;7.982;2023-03-01T05:49:32;97033.19;;;8.23;44.10
48800;BME280;34611;47.964;7.982;2023-03-01T05:56:33;97025.28;;;8.25;44.35
48800;BME280;34611;47.964;7.982;2023-03-01T06:03:34;97030.38;;;8.26;44.21
48800;BME280;34611;47.964;7.982;2023-03-01T06:10:34;97029.47;;;8.27;44.41
48800;BME280;34611;47.964;7.982;2023-03-01T06:17:35;97019.91;;;8.28;44.30
48800;BME280;34611;47.964;7.982;2023-03-01T06:24:37;97026.00;;;8.27;44.32
48800;BME280;34611;47.964;7.982;2023-03-01T06:31:37;97023.31;;;8.28;44.33
48800;BME280;34611;47.964;7.982;2023-03-01T06:38:37;97036.16;;;8.30;44.28
48800;BME280;34611;47.964;7.982;2023-03-01T06:45:38;97032.75;;;8.29;44.38
48800;BME280;34611;47.964;7.982;2023-03-01T06:52:38;97028.41;;;8.30;44.61
48800;BME280;34611;47.964;7.982;2023-03-01T06:59:39;97030.03;;;8.31;44.39
48800;BME280;34611;47.964;7.982;2023-03-01T07:06:39;97027.44;;;8.31;44.44
48800;BME280;34611;47.964;7.982;2023-03-01T07:13:40;97033.34;;;8.33;44.50
48800;BME280;34611;47.964;7.982;2023-03-01T07:20:40;97034.28;;;8.32;44.53
48800;BME280;34611;47.964;7.982;2023-03-01T07:27:40;97035.13;;;8.32;44.53
48800;BME280;34611;47.964;7.982;2023-03-01T07:34:40;97016.06;;;8.34;44.54
48800;BME280;34611;47.964;7.982;2023-03-01T07:41:41;97010.03;;;8.33;44.56
48800;BME280;34611;47.964;7.982;2023-03-01T07:48:41;97015.13;;;8.35;44.74
48800;BME280;34611;47.964;7.982;2023-03-01T07:55:41;97005.56;;;8.35;44.65
48800;BME280;34611;47.964;7.982;2023-03-01T08:02:41;97008.16;;;8.35;44.78
48800;BME280;34611;47.964;7.982;2023-03-01T08:09:42;97002.97;;;8.35;44.74
48800;BME280;34611;47.964;7.982;2023-03-01T08:16:43;97006.41;;;8.36;44.71
48800;BME280;34611;47.964;7.982;2023-03-01T08:23:44;97005.47;;;8.37;44.75
48800;BME280;34611;47.964;7.982;2023-03-01T08:30:44;97008.88;;;8.37;44.82
48800;BME280;34611;47.964;7.982;2023-03-01T08:37:44;96998.41;;;8.39;44.94
48800;BME280;34611;47.964;7.982;2023-03-01T08:44:45;96997.59;;;8.38;44.96
48800;BME280;34611;47.964;7.982;2023-03-01T08:51:45;97002.78;;;8.38;44.82
48800;BME280;34611;47.964;7.982;2023-03-01T08:58:46;97000.19;;;8.38;44.91
48800;BME280;34611;47.964;7.982;2023-03-01T09:05:47;96996.63;;;8.39;44.95
48800;BME280;34611;47.964;7.982;2023-03-01T09:12:47;96984.53;;;8.40;45.11
48800;BME280;34611;47.964;7.982;2023-03-01T09:19:47;96968.16;;;8.39;45.01
48800;BME280;34611;47.964;7.982;2023-03-01T09:26:48;96953.47;;;8.40;45.03
48800;BME280;34611;47.964;7.982;2023-03-01T09:33:50;96960.38;;;8.39;45.03
48800;BME280;34611;47.964;7.982;2023-03-01T09:40:51;96966.31;;;8.41;45.06
48800;BME280;34611;47.964;7.982;2023-03-01T09:47:51;96970.66;;;8.41;45.15
48800;BME280;34611;47.964;7.982;2023-03-01T09:54:54;96978.34;;;8.42;44.95
48800;BME280;34611;47.964;7.982;2023-03-01T10:16:33;96952.44;;;8.42;45.29
48800;BME280;34611;47.964;7.982;2023-03-01T10:23:25;96949.72;;;8.44;45.18
48800;BME280;34611;47.964;7.982;2023-03-01T10:30:35;96949.72;;;8.44;45.13
48800;BME280;34611;47.964;7.982;2023-03-01T10:37:45;96955.84;;;8.43;45.30
48800;BME280;34611;47.964;7.982;2023-03-01T10:44:56;96952.19;;;8.45;45.29
48800;BME280;34611;47.964;7.982;2023-03-01T10:51:56;96941.00;;;8.45;45.38
48800;BME280;34611;47.964;7.982;2023-03-01T10:59:19;96926.41;;;8.44;45.34
48800;BME280;34611;47.964;7.982;2023-03-01T11:06:21;96920.28;;;8.45;45.41
48800;BME280;34611;47.964;7.982;2023-03-01T11:13:21;96920.19;;;8.46;45.37
48800;BME280;34611;47.964;7.982;2023-03-01T11:20:35;96907.22;;;8.46;45.39
48800;BME280;34611;47.964;7.982;2023-03-01T11:27:38;96901.22;;;8.46;45.41
48800;BME280;34611;47.964;7.982;2023-03-01T11:42:17;96878.63;;;8.48;45.33
48800;BME280;34611;47.964;7.982;2023-03-01T11:56:39;96867.41;;;8.47;45.38
48800;BME280;34611;47.964;7.982;2023-03-01T12:25:48;96850.84;;;8.50;45.52
48800;BME280;34611;47.964;7.982;2023-03-01T12:33:05;96844.69;;;8.51;45.61
48800;BME280;34611;47.964;7.982;2023-03-01T12:54:31;96824.78;;;8.51;45.70
48800;BME280;34611;47.964;7.982;2023-03-01T13:15:51;96793.59;;;8.53;45.54
48800;BME280;34611;47.964;7.982;2023-03-01T13:23:03;96794.41;;;8.54;45.74
48800;BME280;34611;47.964;7.982;2023-03-01T13:30:03;96794.41;;;8.54;45.68
48800;BME280;34611;47.964;7.982;2023-03-01T13:37:09;96796.06;;;8.55;45.69
48800;BME280;34611;47.964;7.982;2023-03-01T13:51:20;96789.94;;;8.56;45.82
48800;BME280;34611;47.964;7.982;2023-03-01T13:58:22;96784.75;;;8.56;45.73
48800;BME280;34611;47.964;7.982;2023-03-01T14:05:23;96783.94;;;8.55;45.76
48800;BME280;34611;47.964;7.982;2023-03-01T14:19:35;96766.63;;;8.56;45.75
48800;BME280;34611;47.964;7.982;2023-03-01T14:26:36;96767.44;;;8.56;45.92
48800;BME280;34611;47.964;7.982;2023-03-01T14:33:36;96766.63;;;8.56;46.00
48800;BME280;34611;47.964;7.982;2023-03-01T14:40:37;96762.25;;;8.56;45.99
48800;BME280;34611;47.964;7.982;2023-03-01T14:47:37;96755.31;;;8.57;46.04
48800;BME280;34611;47.964;7.982;2023-03-01T14:54:49;96750.16;;;8.57;45.88
48800;BME280;34611;47.964;7.982;2023-03-01T15:01:50;96741.53;;;8.56;45.85
48800;BME280;34611;47.964;7.982;2023-03-01T15:08:52;96744.00;;;8.58;45.95
48800;BME280;34611;47.964;7.982;2023-03-01T15:16:00;96742.38;;;8.57;45.90
48800;BME280;34611;47.964;7.982;2023-03-01T15:23:01;96751.66;;;8.59;46.05
48800;BME280;34611;47.964;7.982;2023-03-01T15:30:02;96731.88;;;8.58;45.95
48800;BME280;34611;47.964;7.982;2023-03-01T15:37:04;96733.63;;;8.58;46.08
48800;BME280;34611;47.964;7.982;2023-03-01T15:44:15;96733.63;;;8.58;46.11
48800;BME280;34611;47.964;7.982;2023-03-01T15:51:16;96733.53;;;8.59;46.09
48800;BME280;34611;47.964;7.982;2023-03-01T15:58:23;96730.13;;;8.59;46.15
48800;BME280;34611;47.964;7.982;2023-03-01T16:05:31;96738.72;;;8.59;45.99
48800;BME280;34611;47.964;7.982;2023-03-01T16:12:31;96740.47;;;8.59;46.16
48800;BME280;34611;47.964;7.982;2023-03-01T16:19:32;96740.47;;;8.59;46.06
48800;BME280;34611;47.964;7.982;2023-03-01T16:26:32;96747.31;;;8.60;45.99
48800;BME280;34611;47.964;7.982;2023-03-01T16:33:32;96751.56;;;8.61;46.15
48800;BME280;34611;47.964;7.982;2023-03-01T16:40:33;96755.88;;;8.60;46.11
48800;BME280;34611;47.964;7.982;2023-03-01T16:47:34;96758.50;;;9.26;49.05
48800;BME280;34611;47.964;7.982;2023-03-01T16:54:34;96767.97;;;9.05;52.45
48800;BME280;34611;47.964;7.982;2023-03-01T17:01:34;96770.47;;;8.95;50.26
48800;BME280;34611;47.964;7.982;2023-03-01T17:08:39;96782.63;;;8.95;48.97
48800;BME280;34611;47.964;7.982;2023-03-01T17:15:40;96778.50;;;8.92;48.29
48800;BME280;34611;47.964;7.982;2023-03-01T17:22:40;96783.78;;;8.90;47.92
48800;BME280;34611;47.964;7.982;2023-03-01T17:29:40;96783.78;;;8.90;47.36
48800;BME280;34611;47.964;7.982;2023-03-01T17:36:41;96785.56;;;8.90;47.22
48800;BME280;34611;47.964;7.982;2023-03-01T17:43:46;96790.88;;;8.88;47.14
48800;BME280;34611;47.964;7.982;2023-03-01T17:50:46;96800.28;;;8.89;46.84
48800;BME280;34611;47.964;7.982;2023-03-01T17:57:46;96811.59;;;8.88;46.80
48800;BME280;34611;47.964;7.982;2023-03-01T18:04:47;96816.78;;;8.88;46.61
48800;BME280;34611;47.964;7.982;2023-03-01T18:11:47;96819.38;;;8.88;46.67
48800;BME280;34611;47.964;7.982;2023-03-01T18:18:51;96815.00;;;8.89;46.54
48800;BME280;34611;47.964;7.982;2023-03-01T18:25:56;96817.59;;;8.89;46.30
48800;BME280;34611;47.964;7.982;2023-03-01T18:32:56;96806.53;;;8.87;46.31
48800;BME280;34611;47.964;7.982;2023-03-01T18:39:56;96817.84;;;8.86;46.32
48800;BME280;34611;47.964;7.982;2023-03-01T18:46:57;96814.44;;;8.85;46.21
48800;BME280;34611;47.964;7.982;2023-03-01T18:53:57;96812.69;;;8.86;46.01
48800;BME280;34611;47.964;7.982;2023-03-01T19:00:57;96809.25;;;8.85;46.19
48800;BME280;34611;47.964;7.982;2023-03-01T19:07:59;96819.63;;;8.85;46.00
48800;BME280;34611;47.964;7.982;2023-03-01T19:14:59;96810.44;;;8.93;46.15
48800;BME280;34611;47.964;7.982;2023-03-01T19:21:59;96805.25;;;8.93;46.77
48800;BME280;34611;47.964;7.982;2023-03-01T19:28:59;96792.28;;;8.93;46.83
48800;BME280;34611;47.964;7.982;2023-03-01T19:36:01;96795.69;;;8.93;46.72
48800;BME280;34611;47.964;7.982;2023-03-01T19:43:01;96799.09;;;8.94;46.62
48800;BME280;34611;47.964;7.982;2023-03-01T19:50:02;96792.16;;;8.94;46.60
48800;BME280;34611;47.964;7.982;2023-03-01T19:57:04;96790.38;;;8.95;46.75
48800;BME280;34611;47.964;7.982;2023-03-01T20:04:05;96779.19;;;8.94;46.71
48800;BME280;34611;47.964;7.982;2023-03-01T20:11:08;96773.88;;;8.96;46.81
48800;BME280;34611;47.964;7.982;2023-03-01T20:18:09;96778.25;;;8.95;46.70
48800;BME280;34611;47.964;7.982;2023-03-01T20:25:10;96775.53;;;8.97;46.64
48800;BME280;34611;47.964;7.982;2023-03-01T20:32:10;96772.13;;;8.96;46.81
48800;BME280;34611;47.964;7.982;2023-03-01T20:39:11;96765.16;;;8.97;46.67
48800;BME280;34611;47.964;7.982;2023-03-01T20:46:11;96759.03;;;8.98;46.75
48800;BME280;34611;47.964;7.982;2023-03-01T20:53:12;96759.03;;;8.98;46.79
48800;BME280;34611;47.964;7.982;2023-03-01T21:00:12;96739.25;;;8.97;46.77
48800;BME280;34611;47.964;7.982;2023-03-01T21:07:12;96735.69;;;8.98;46.82
48800;BME280;34611;47.964;7.982;2023-03-01T21:14:13;96726.16;;;8.98;46.91
48800;BME280;34611;47.964;7.982;2023-03-01T21:21:14;96723.44;;;9.00;46.92
48800;BME280;34611;47.964;7.982;2023-03-01T21:28:15;96719.19;;;8.99;46.96
48800;BME280;34611;47.964;7.982;2023-03-01T21:35:15;96724.38;;;8.99;46.81
48800;BME280;34611;47.964;7.982;2023-03-01T21:42:15;96717.44;;;8.99;46.93
48800;BME280;34611;47.964;7.982;2023-03-01T21:49:16;96702.69;;;9.00;47.01
48800;BME280;34611;47.964;7.982;2023-03-01T21:56:20;96700.09;;;9.00;46.99
48800;BME280;34611;47.964;7.982;2023-03-01T22:03:21;96694.91;;;9.00;46.95
48800;BME280;34611;47.964;7.982;2023-03-01T22:10:21;96688.78;;;9.01;46.95
48800;BME280;34611;47.964;7.982;2023-03-01T22:17:26;96688.09;;;8.99;46.89
48800;BME280;34611;47.964;7.982;2023-03-01T22:24:26;96681.94;;;9.00;47.04
48800;BME280;34611;47.964;7.982;2023-03-01T22:31:27;96674.06;;;9.01;47.11
48800;BME280;34611;47.964;7.982;2023-03-01T22:38:27;96672.28;;;9.02;46.92
48800;BME280;34611;47.964;7.982;2023-03-01T22:45:28;96658.50;;;9.01;46.90
48800;BME280;34611;47.964;7.982;2023-03-01T22:52:29;96655.09;;;9.01;47.09
48800;BME280;34611;47.964;7.982;2023-03-01T22:59:29;96649.78;;;9.02;47.00
48800;BME280;34611;47.964;7.982;2023-03-01T23:06:29;96657.69;;;9.01;47.18
48800;BME280;34611;47.964;7.982;2023-03-01T23:13:30;96654.97;;;9.02;47.12
48800;BME280;34611;47.964;7.982;2023-03-01T23:20:33;96632.56;;;9.01;47.19
48800;BME280;34611;47.964;7.982;2023-03-01T23:27:35;96628.19;;;9.02;46.96
48800;BME280;34611;47.964;7.982;2023-03-01T23:34:35;96621.25;;;9.02;47.15
48800;BME280;34611;47.964;7.982;2023-03-01T23:41:36;96615.38;;;9.00;47.25
48800;BME280;34611;47.964;7.982;2023-03-01T23:48:36;96610.06;;;9.02;47.08
48800;BME280;34611;47.964;7.982;2023-03-01T23:55:37;96599.69;;;9.02;47.15
